Time;durP1;ratioP1;P1;durP2;ratioP2;P2;SDS_P1;SDS_P2;PMS_P1;PMS_P2;Temp;Humidity;BMP_temperature;BMP_pressure;BME280_temperature;BME280_humidity;BME280_pressure;Samples;Min_cycle;Max_cycle;Signal;HPM_P1;HPM_P2
2023/04/24 00:02:10;;;;;;;2.75;1.33;;;;;;;8.64;100.00;93019.56;4994613;28;20407;-60
2023/04/24 00:04:40;;;;;;;2.28;1.10;;;;;;;8.67;100.00;93008.53;4995138;28;20042;-59
2023/04/24 00:07:07;;;;;;;3.97;1.73;;;;;;;8.67;100.00;93016.75;5011375;28;20046;-60
2023/04/24 00:09:33;;;;;;;2.08;1.00;;;;;;;8.56;100.00;93008.00;5010950;28;20408;-59
2023/04/24 00:12:02;;;;;;;2.70;1.03;;;;;;;8.55;100.00;93000.97;5011292;28;20060;-59
2023/04/24 00:14:29;;;;;;;2.80;1.23;;;;;;;8.54;100.00;93000.22;5011350;28;20402;-59
2023/04/24 00:16:55;;;;;;;3.05;1.40;;;;;;;8.55;100.00;92998.25;5010742;28;20052;-59
2023/04/24 00:19:22;;;;;;;3.50;1.33;;;;;;;8.61;100.00;92996.53;5011009;28;20126;-59
2023/04/24 00:21:49;;;;;;;2.03;1.02;;;;;;;8.58;100.00;92995.44;5010354;28;20095;-59
2023/04/24 00:24:17;;;;;;;2.33;1.20;;;;;;;8.58;100.00;93000.16;5010792;28;20046;-59
2023/04/24 00:26:44;;;;;;;2.05;1.10;;;;;;;8.55;100.00;92992.78;5010538;28;20042;-59
2023/04/24 00:29:10;;;;;;;2.13;1.02;;;;;;;8.57;100.00;92998.59;5010831;28;20048;-59
2023/04/24 00:31:37;;;;;;;2.85;1.10;;;;;;;8.55;100.00;92996.31;5010254;28;20069;-59
2023/04/24 00:34:04;;;;;;;2.20;1.13;;;;;;;8.58;100.00;92991.94;5010824;28;20048;-59
2023/04/24 00:36:31;;;;;;;3.23;1.30;;;;;;;8.58;100.00;92997.41;5010777;28;20054;-59
2023/04/24 00:38:58;;;;;;;2.38;1.10;;;;;;;8.57;100.00;92985.72;5009698;28;20122;-60
2023/04/24 00:41:25;;;;;;;3.20;1.17;;;;;;;8.59;100.00;92990.72;5010222;28;20050;-60
2023/04/24 00:43:52;;;;;;;2.25;0.90;;;;;;;8.59;100.00;92980.59;5010035;28;20073;-60
2023/04/24 00:46:20;;;;;;;2.70;1.30;;;;;;;8.56;100.00;92983.38;5010754;28;20045;-59
2023/04/24 00:48:47;;;;;;;4.10;1.40;;;;;;;8.46;100.00;92979.69;5010093;28;20103;-59
2023/04/24 00:51:14;;;;;;;2.78;1.20;;;;;;;8.45;100.00;92982.84;5010263;28;20471;-59
2023/04/24 00:53:41;;;;;;;2.13;1.20;;;;;;;8.42;100.00;92983.72;5009793;28;20513;-59
2023/04/24 00:56:08;;;;;;;2.25;1.10;;;;;;;8.43;100.00;92971.56;5010427;28;20552;-59
2023/04/24 00:58:34;;;;;;;3.85;1.33;;;;;;;8.49;100.00;92986.28;5009913;28;20753;-59
2023/04/24 01:01:02;;;;;;;3.40;1.47;;;;;;;8.51;100.00;92975.69;5003201;28;20435;-60
2023/04/24 01:03:33;;;;;;;3.25;1.20;;;;;;;8.50;100.00;92980.38;4991200;28;20054;-60
2023/04/24 01:06:01;;;;;;;2.60;1.35;;;;;;;8.48;100.00;92973.81;4989853;28;20785;-60
2023/04/24 01:08:28;;;;;;;3.10;1.20;;;;;;;8.43;100.00;92971.56;5007344;28;20049;-60
2023/04/24 01:10:57;;;;;;;2.67;1.60;;;;;;;8.39;100.00;92966.16;5009284;28;20292;-59
2023/04/24 01:13:24;;;;;;;2.73;1.10;;;;;;;8.43;100.00;92964.16;5010055;28;20042;-60
2023/04/24 01:15:51;;;;;;;2.78;1.30;;;;;;;8.37;100.00;92972.06;5009505;28;20045;-59
2023/04/24 01:18:17;;;;;;;2.95;1.40;;;;;;;8.37;100.00;92980.25;5010046;28;20048;-59
2023/04/24 01:20:45;;;;;;;3.60;1.30;;;;;;;8.33;100.00;92982.31;5009474;28;20185;-59
2023/04/24 01:23:12;;;;;;;2.72;1.23;;;;;;;8.23;100.00;92974.31;5009856;28;20037;-59
2023/04/24 01:25:39;;;;;;;2.60;1.30;;;;;;;8.29;100.00;92975.34;5009481;28;20058;-59
2023/04/24 01:28:05;;;;;;;3.08;1.20;;;;;;;8.14;100.00;92972.94;5009463;28;20048;-59
2023/04/24 01:30:33;;;;;;;3.30;1.58;;;;;;;8.12;100.00;92975.31;5009689;28;20042;-60
2023/04/24 01:33:00;;;;;;;2.72;1.30;;;;;;;8.10;100.00;92972.25;5008781;28;20865;-59
2023/04/24 01:35:27;;;;;;;3.08;1.52;;;;;;;8.08;100.00;92965.66;5009656;28;20038;-59
2023/04/24 01:37:54;;;;;;;3.23;1.50;;;;;;;8.00;100.00;92970.50;5009292;28;20135;-59
2023/04/24 01:40:21;;;;;;;2.80;1.50;;;;;;;7.91;100.00;92979.28;5009316;28;20048;-60
2023/04/24 01:42:47;;;;;;;3.35;1.55;;;;;;;7.91;100.00;92964.84;5008903;28;20057;-60
2023/04/24 01:45:14;;;;;;;2.55;1.50;;;;;;;7.90;100.00;92976.97;5009528;28;20091;-60
2023/04/24 01:47:41;;;;;;;3.88;1.60;;;;;;;7.92;100.00;92988.22;5008898;28;20046;-60
2023/04/24 01:50:08;;;;;;;3.17;1.60;;;;;;;7.95;100.00;92976.47;5009315;28;20045;-59
2023/04/24 01:52:35;;;;;;;4.13;1.70;;;;;;;7.95;100.00;92979.22;5008717;28;20060;-59
2023/04/24 01:55:03;;;;;;;3.88;1.50;;;;;;;7.94;100.00;92978.41;5009004;28;20099;-60
2023/04/24 01:57:31;;;;;;;3.55;1.52;;;;;;;7.91;100.00;92990.19;5009055;28;20423;-59
2023/04/24 01:59:58;;;;;;;2.90;1.65;;;;;;;7.85;100.00;92982.91;5008590;28;20050;-60
2023/04/24 02:02:27;;;;;;;3.13;1.90;;;;;;;7.86;100.00;92992.66;4992182;28;20058;-59
2023/04/24 02:04:54;;;;;;;4.65;2.08;;;;;;;7.84;100.00;92987.59;4997886;28;20057;-60
2023/04/24 02:07:21;;;;;;;3.10;1.63;;;;;;;7.75;100.00;92982.72;5008980;28;20042;-60
2023/04/24 02:09:48;;;;;;;3.38;1.70;;;;;;;7.72;100.00;92994.47;5008657;28;20495;-59
2023/04/24 02:12:17;;;;;;;3.05;1.70;;;;;;;7.66;100.00;92990.69;5008591;28;20052;-59
2023/04/24 02:14:44;;;;;;;3.63;1.80;;;;;;;7.64;100.00;92993.06;5008455;28;20033;-60
2023/04/24 02:17:12;;;;;;;4.05;1.85;;;;;;;7.71;100.00;92987.47;5008479;28;20054;-60
2023/04/24 02:19:39;;;;;;;3.17;1.70;;;;;;;7.66;100.00;92990.69;5008349;28;20040;-60
2023/04/24 02:22:05;;;;;;;2.90;1.70;;;;;;;7.63;100.00;92991.53;5008535;28;20049;-60
2023/04/24 02:24:32;;;;;;;3.40;1.90;;;;;;;7.61;100.00;92980.25;5008768;28;20482;-60
2023/04/24 02:27:00;;;;;;;3.67;1.70;;;;;;;7.64;100.00;92986.84;5007992;28;21587;-59
2023/04/24 02:29:26;;;;;;;3.33;1.98;;;;;;;7.63;100.00;92991.53;5008528;28;20052;-60
2023/04/24 02:31:53;;;;;;;3.28;2.00;;;;;;;7.59;100.00;92993.56;5008022;28;20671;-60
2023/04/24 02:34:20;;;;;;;3.42;1.92;;;;;;;7.53;100.00;92990.53;5008423;28;20038;-60
2023/04/24 02:36:46;;;;;;;3.40;2.05;;;;;;;7.50;100.00;92982.41;5008035;28;20038;-60
2023/04/24 02:39:14;;;;;;;4.47;1.90;;;;;;;7.53;100.00;92981.59;5008460;28;20050;-60
2023/04/24 02:41:40;;;;;;;3.78;1.90;;;;;;;7.53;100.00;92979.63;5007486;28;20060;-60
2023/04/24 02:44:07;;;;;;;3.25;1.85;;;;;;;7.46;100.00;92989.91;5008497;28;20072;-60
2023/04/24 02:46:34;;;;;;;3.20;1.77;;;;;;;7.49;100.00;92991.81;5007952;28;20044;-59
2023/04/24 02:49:00;;;;;;;3.17;1.92;;;;;;;7.51;100.00;92989.44;5008259;28;20038;-59
2023/04/24 02:51:27;;;;;;;4.17;1.87;;;;;;;7.58;100.00;92992.78;4990506;28;20099;-60
2023/04/24 02:53:53;;;;;;;2.78;1.60;;;;;;;7.62;100.00;92989.22;5007774;28;20050;-60
2023/04/24 02:56:20;;;;;;;3.05;1.75;;;;;;;7.59;100.00;92982.63;5008299;28;20503;-59
2023/04/24 02:58:47;;;;;;;3.85;1.60;;;;;;;7.52;100.00;92980.78;5007804;28;20042;-59
2023/04/24 03:01:14;;;;;;;3.67;1.80;;;;;;;7.50;100.00;92979.69;4999991;28;20418;-60
2023/04/24 03:03:41;;;;;;;2.90;1.60;;;;;;;7.52;100.00;92967.13;4988267;28;20042;-59
2023/04/24 03:06:08;;;;;;;3.55;1.50;;;;;;;7.50;100.00;92957.84;5007260;28;20050;-59
2023/04/24 03:08:35;;;;;;;3.67;1.73;;;;;;;7.54;100.00;92972.94;5007944;28;20046;-60
2023/04/24 03:11:02;;;;;;;3.08;1.50;;;;;;;7.44;100.00;92970.44;5007858;28;20099;-59
2023/04/24 03:13:29;;;;;;;3.53;1.70;;;;;;;7.50;100.00;92976.94;5007816;28;20048;-60
2023/04/24 03:15:56;;;;;;;3.57;1.60;;;;;;;7.53;100.00;92976.88;5007336;28;20044;-59
2023/04/24 03:18:22;;;;;;;3.75;1.90;;;;;;;7.49;100.00;92980.88;5008036;28;20048;-59
2023/04/24 03:20:49;;;;;;;2.72;1.70;;;;;;;7.48;100.00;92982.06;5007380;28;20048;-60
2023/04/24 03:23:16;;;;;;;4.53;2.10;;;;;;;7.42;100.00;92981.75;5008216;28;20080;-60
2023/04/24 03:25:43;;;;;;;4.63;2.00;;;;;;;7.48;100.00;92987.50;5007341;28;20050;-59
2023/04/24 03:28:09;;;;;;;3.57;2.00;;;;;;;7.46;100.00;92978.97;5007952;28;20491;-59
2023/04/24 03:30:36;;;;;;;4.53;2.08;;;;;;;7.57;100.00;92983.06;5005869;28;20064;-60
2023/04/24 03:33:03;;;;;;;3.65;1.92;;;;;;;7.52;100.00;92985.50;5007706;28;20121;-59
2023/04/24 03:35:30;;;;;;;3.60;2.28;;;;;;;7.50;100.00;92977.72;5007773;28;20068;-59
2023/04/24 03:37:57;;;;;;;3.70;1.80;;;;;;;7.56;100.00;92988.91;5007165;28;20050;-59
2023/04/24 03:40:23;;;;;;;3.93;1.60;;;;;;;7.54;100.00;92978.41;5007824;28;20056;-60
2023/04/24 03:42:50;;;;;;;5.32;1.90;;;;;;;7.47;100.00;92978.56;5006622;28;20042;-59
2023/04/24 03:45:17;;;;;;;3.40;1.42;;;;;;;7.40;100.00;92975.94;5007732;28;20052;-60
2023/04/24 03:47:43;;;;;;;3.50;1.63;;;;;;;7.42;100.00;92986.47;5007060;28;20115;-60
2023/04/24 03:50:10;;;;;;;3.40;1.60;;;;;;;7.40;100.00;92984.16;5007311;28;20079;-59
2023/04/24 03:52:38;;;;;;;2.60;1.50;;;;;;;7.51;100.00;92984.72;5007476;28;20076;-60
2023/04/24 03:55:06;;;;;;;3.00;1.50;;;;;;;7.54;100.00;92983.88;5007437;28;20157;-59
2023/04/24 03:57:33;;;;;;;4.82;2.22;;;;;;;7.54;100.00;92972.94;5007646;28;20046;-59
2023/04/24 03:59:59;;;;;;;3.17;1.80;;;;;;;7.49;100.00;92973.47;5007122;28;20048;-59
2023/04/24 04:02:26;;;;;;;3.95;1.77;;;;;;;7.52;100.00;92969.88;4990637;28;20058;-60
2023/04/24 04:04:53;;;;;;;3.77;1.97;;;;;;;7.45;100.00;92970.03;4996392;28;20064;-60
2023/04/24 04:07:20;;;;;;;3.75;1.73;;;;;;;7.38;100.00;92970.13;5007729;28;20053;-59
2023/04/24 04:09:46;;;;;;;3.53;1.90;;;;;;;7.35;100.00;92974.50;5007188;28;20136;-60
2023/04/24 04:12:13;;;;;;;3.60;1.85;;;;;;;7.31;100.00;92979.25;5007372;28;20054;-60
2023/04/24 04:14:40;;;;;;;3.58;1.92;;;;;;;7.18;100.00;92981.81;5008714;28;20046;-60
2023/04/24 04:17:06;;;;;;;4.23;1.80;;;;;;;7.22;100.00;92976.28;5011173;28;20042;-59
2023/04/24 04:19:33;;;;;;;3.00;1.73;;;;;;;7.29;100.00;92980.84;5010867;28;20467;-59
2023/04/24 04:22:00;;;;;;;3.15;1.83;;;;;;;7.29;100.00;92972.66;5009863;28;21778;-60
2023/04/24 04:24:27;;;;;;;3.35;1.55;;;;;;;7.30;100.00;92974.97;4996238;28;20096;-59
2023/04/24 04:26:56;;;;;;;4.53;1.50;;;;;;;7.24;100.00;92979.34;5010196;28;20052;-60
2023/04/24 04:29:23;;;;;;;2.63;1.60;;;;;;;7.19;100.00;92969.69;5010809;28;20125;-59
2023/04/24 04:31:50;;;;;;;2.80;1.23;;;;;;;7.11;100.00;92976.47;5010435;28;20050;-60
2023/04/24 04:34:18;;;;;;;3.13;1.30;;;;;;;7.10;100.00;92976.88;5010632;28;20069;-59
2023/04/24 04:36:46;;;;;;;3.13;1.67;;;;;;;7.12;100.00;92990.88;5010237;28;20483;-59
2023/04/24 04:39:14;;;;;;;3.45;1.70;;;;;;;7.17;100.00;93004.06;5010509;28;20046;-59
2023/04/24 04:41:41;;;;;;;3.87;1.90;;;;;;;7.13;100.00;93004.09;5008158;28;20046;-60
2023/04/24 04:44:08;;;;;;;4.35;2.13;;;;;;;7.24;100.00;93014.81;5010553;28;20053;-60
2023/04/24 04:46:37;;;;;;;5.10;2.67;;;;;;;7.19;100.00;93016.09;5009691;28;20045;-60
2023/04/24 04:49:04;;;;;;;3.50;1.98;;;;;;;7.20;100.00;93023.09;5010433;28;20099;-60
2023/04/24 04:51:30;;;;;;;3.83;2.15;;;;;;;7.20;100.00;93034.00;5010206;28;20053;-60
2023/04/24 04:53:57;;;;;;;3.50;2.00;;;;;;;7.33;100.00;93038.88;5009719;28;20138;-60
2023/04/24 04:56:24;;;;;;;4.68;2.10;;;;;;;7.36;100.00;93030.63;5010199;28;20034;-59
2023/04/24 04:58:51;;;;;;;3.05;1.92;;;;;;;7.28;100.00;93031.91;5010032;28;20056;-59
2023/04/24 05:01:17;;;;;;;3.83;2.08;;;;;;;7.31;100.00;93030.34;5010066;28;20042;-59
2023/04/24 05:03:44;;;;;;;3.58;1.90;;;;;;;7.17;100.00;93047.72;5009654;28;20050;-59
2023/04/24 05:06:11;;;;;;;3.37;1.90;;;;;;;7.19;100.00;93045.34;5009855;28;20412;-60
2023/04/24 05:08:38;;;;;;;4.43;2.10;;;;;;;7.22;100.00;93047.22;5009673;28;20049;-59
2023/04/24 05:11:06;;;;;;;3.63;1.80;;;;;;;7.18;100.00;93050.03;5009693;28;20048;-60
2023/04/24 05:13:32;;;;;;;3.38;1.70;;;;;;;7.13;100.00;93047.75;5008794;28;20072;-60
2023/04/24 05:16:06;;;;;;;2.65;1.50;;;;;;;7.05;100.00;93067.41;5008989;28;20644;-59
2023/04/24 05:18:33;;;;;;;4.47;1.50;;;;;;;7.21;100.00;93062.06;5007283;28;20053;-60
2023/04/24 05:21:01;;;;;;;2.97;1.58;;;;;;;7.35;100.00;93075.47;4996540;28;20691;-60
2023/04/24 05:23:27;;;;;;;2.53;1.38;;;;;;;7.42;100.00;93076.53;5000548;28;20054;-61
2023/04/24 05:25:54;;;;;;;3.40;1.70;;;;;;;7.45;100.00;93083.91;4997925;28;20050;-60
2023/04/24 05:28:21;;;;;;;5.40;1.60;;;;;;;7.58;100.00;93085.59;5002520;28;20566;-60
2023/04/24 05:30:48;;;;;;;2.30;1.30;;;;;;;7.64;100.00;93085.13;4997112;28;20049;-60
2023/04/24 05:33:14;;;;;;;2.85;1.20;;;;;;;7.56;100.00;93092.69;4997039;28;20505;-60
2023/04/24 05:35:50;;;;;;;4.28;1.58;;;;;;;7.66;100.00;93097.19;4995041;28;20765;-60
2023/04/24 05:38:19;;;;;;;3.78;1.80;;;;;;;7.46;100.00;93090.91;4998824;28;20104;-60
2023/04/24 05:40:46;;;;;;;4.35;2.40;;;;;;;6.82;100.00;93084.47;5002643;28;20049;-60
2023/04/24 05:43:13;;;;;;;5.17;3.10;;;;;;;6.67;100.00;93081.19;4983151;28;20046;-60
2023/04/24 05:45:39;;;;;;;5.80;2.83;;;;;;;6.43;100.00;93096.69;4998012;28;20081;-61
2023/04/24 05:48:06;;;;;;;5.65;3.38;;;;;;;6.08;100.00;93095.97;4995642;28;20057;-60
2023/04/24 05:50:33;;;;;;;5.70;3.50;;;;;;;6.15;100.00;93101.31;4999616;28;20041;-60
2023/04/24 05:53:03;;;;;;;7.10;3.45;;;;;;;6.50;100.00;93100.13;4994267;28;20071;-61
2023/04/24 05:55:31;;;;;;;6.87;3.23;;;;;;;6.45;100.00;93103.28;4997149;28;20050;-61
2023/04/24 05:57:58;;;;;;;6.10;3.53;;;;;;;6.19;100.00;93107.50;4998018;28;20048;-60
2023/04/24 06:00:25;;;;;;;5.13;3.30;;;;;;;6.51;100.00;93109.81;4999814;28;20041;-60
2023/04/24 06:02:54;;;;;;;4.88;2.72;;;;;;;6.93;100.00;93102.25;4995353;28;20048;-60
2023/04/24 06:05:21;;;;;;;6.05;2.90;;;;;;;7.24;100.00;93106.84;4996605;28;20058;-61
2023/04/24 06:07:48;;;;;;;4.33;2.60;;;;;;;8.00;100.00;93107.88;4998896;28;20050;-61
2023/04/24 06:10:15;;;;;;;5.07;2.80;;;;;;;8.28;100.00;93105.03;5000080;28;20042;-61
2023/04/24 06:12:42;;;;;;;5.25;2.97;;;;;;;7.38;100.00;93107.41;4997658;28;20040;-61
2023/04/24 06:15:09;;;;;;;6.35;2.88;;;;;;;8.07;100.00;93106.19;5001826;28;20065;-59
2023/04/24 06:17:36;;;;;;;5.63;3.30;;;;;;;8.70;100.00;93091.72;4997234;28;20488;-59
2023/04/24 06:20:05;;;;;;;5.27;2.90;;;;;;;11.63;100.00;93089.75;5000532;28;20119;-60
2023/04/24 06:22:32;;;;;;;3.88;2.72;;;;;;;11.78;100.00;93085.34;4996975;28;20046;-61
2023/04/24 06:25:00;;;;;;;3.72;2.10;;;;;;;13.97;100.00;93096.56;5000455;28;20095;-61
2023/04/24 06:27:26;;;;;;;3.83;2.40;;;;;;;14.49;98.61;93094.75;4998953;28;20030;-61
2023/04/24 06:29:54;;;;;;;3.78;2.15;;;;;;;13.08;95.98;93090.59;4995910;28;20052;-60
2023/04/24 06:32:23;;;;;;;3.53;2.30;;;;;;;12.89;100.00;93095.22;4991600;28;20038;-61
2023/04/24 06:34:52;;;;;;;4.07;2.50;;;;;;;14.47;94.16;93085.41;4994317;28;20050;-61
2023/04/24 06:37:20;;;;;;;3.13;2.10;;;;;;;15.51;87.98;93078.72;4999730;28;20403;-61
2023/04/24 06:39:47;;;;;;;3.35;2.17;;;;;;;11.12;100.00;93074.84;5002294;28;20044;-60
2023/04/24 06:42:14;;;;;;;4.10;2.17;;;;;;;10.78;100.00;93081.78;5000819;28;20078;-60
2023/04/24 06:44:40;;;;;;;4.67;2.33;;;;;;;13.88;100.00;93085.50;5002619;28;20402;-59
2023/04/24 06:47:08;;;;;;;3.95;2.40;;;;;;;15.08;93.98;93086.25;5008353;28;20046;-59
2023/04/24 06:49:36;;;;;;;3.42;2.20;;;;;;;16.60;80.00;93090.78;5000156;28;20050;-60
2023/04/24 06:52:03;;;;;;;6.15;2.45;;;;;;;15.58;91.15;93091.44;5000951;28;20072;-59
2023/04/24 06:54:30;;;;;;;4.55;2.40;;;;;;;10.72;100.00;93099.97;5007983;28;20046;-59
2023/04/24 06:56:57;;;;;;;3.60;2.40;;;;;;;10.62;100.00;93105.75;5007751;28;20046;-59
2023/04/24 06:59:24;;;;;;;3.50;2.00;;;;;;;10.79;100.00;93104.50;5007917;28;20368;-59
2023/04/24 07:01:51;;;;;;;4.13;2.08;;;;;;;13.17;100.00;93118.16;5007488;28;20046;-59
2023/04/24 07:04:21;;;;;;;4.07;2.13;;;;;;;15.00;88.99;93100.84;5007845;28;20050;-59
2023/04/24 07:06:51;;;;;;;3.35;2.00;;;;;;;13.56;86.72;93096.63;5007704;28;20046;-59
2023/04/24 07:09:18;;;;;;;3.20;1.83;;;;;;;16.23;78.02;93099.38;5008173;28;20054;-59
2023/04/24 07:11:45;;;;;;;3.47;1.63;;;;;;;16.47;68.83;93108.44;5007756;28;20459;-59
2023/04/24 07:14:13;;;;;;;2.67;1.70;;;;;;;20.15;53.79;93098.06;5007718;28;20045;-60
2023/04/24 07:16:40;;;;;;;3.15;1.60;;;;;;;19.99;52.67;93101.50;5007600;28;20490;-60
2023/04/24 07:19:07;;;;;;;3.15;1.70;;;;;;;18.73;48.73;93109.19;5007789;28;20046;-60
2023/04/24 07:21:33;;;;;;;2.30;1.60;;;;;;;18.34;49.41;93110.25;5007868;28;20046;-60
2023/04/24 07:24:00;;;;;;;2.85;1.40;;;;;;;16.51;54.73;93125.63;5007107;28;20666;-59
2023/04/24 07:26:29;;;;;;;4.80;2.20;;;;;;;15.56;58.73;93130.63;5007662;28;20050;-59
2023/04/24 07:28:56;;;;;;;3.03;1.70;;;;;;;14.40;56.50;93141.66;5007588;28;20050;-59
2023/04/24 07:31:23;;;;;;;6.13;2.33;;;;;;;14.47;59.50;93127.56;4997396;28;20042;-59
2023/04/24 07:33:50;;;;;;;4.40;1.77;;;;;;;13.81;65.27;93144.47;4987992;28;20046;-59
2023/04/24 07:36:19;;;;;;;3.83;1.85;;;;;;;13.71;63.77;93137.41;5003408;28;20049;-59
2023/04/24 07:38:46;;;;;;;4.20;1.65;;;;;;;12.91;70.00;93141.59;5006997;28;20064;-59
2023/04/24 07:41:13;;;;;;;3.67;1.90;;;;;;;11.93;72.91;93144.19;5007180;28;20054;-59
2023/04/24 07:43:41;;;;;;;3.65;1.80;;;;;;;12.10;77.37;93149.53;5007460;28;20072;-58
2023/04/24 07:46:08;;;;;;;3.30;1.70;;;;;;;11.97;75.23;93150.31;5007618;28;20038;-59
2023/04/24 07:48:36;;;;;;;3.42;2.00;;;;;;;10.18;86.40;93167.25;5008899;28;20038;-59
2023/04/24 07:51:03;;;;;;;5.70;2.20;;;;;;;10.97;86.32;93167.13;5011537;28;20521;-61
2023/04/24 07:53:30;;;;;;;3.50;1.80;;;;;;;10.79;89.25;93167.63;5011499;28;20041;-61
2023/04/24 07:55:57;;;;;;;4.55;1.90;;;;;;;10.99;91.42;93175.69;5011204;28;20042;-61
2023/04/24 07:58:24;;;;;;;4.70;1.80;;;;;;;11.58;84.70;93171.53;5011457;28;20046;-58
2023/04/24 08:00:50;;;;;;;4.85;1.92;;;;;;;11.54;84.15;93183.88;5010897;28;20566;-58
2023/04/24 08:03:19;;;;;;;4.50;1.90;;;;;;;12.05;80.93;93186.59;5011119;28;20049;-61
2023/04/24 08:05:47;;;;;;;7.50;1.77;;;;;;;12.88;76.32;93183.81;5010399;28;20392;-59
2023/04/24 08:08:14;;;;;;;3.70;1.98;;;;;;;14.02;71.12;93197.25;5010991;28;20453;-59
2023/04/24 08:10:41;;;;;;;3.73;1.93;;;;;;;17.54;57.18;93192.81;5010716;28;20076;-59
2023/04/24 08:13:07;;;;;;;3.17;1.60;;;;;;;18.57;51.77;93182.75;5011436;28;20487;-59
2023/04/24 08:15:34;;;;;;;2.90;1.83;;;;;;;16.82;54.34;93195.78;5010539;28;20440;-59
2023/04/24 08:18:01;;;;;;;3.15;1.85;;;;;;;17.17;55.24;93207.03;5011131;28;20042;-59
2023/04/24 08:20:28;;;;;;;3.35;1.90;;;;;;;17.12;52.20;93205.72;5010676;28;20046;-59
2023/04/24 08:22:56;;;;;;;3.00;1.83;;;;;;;16.57;51.42;93208.84;5010711;28;20430;-60
2023/04/24 08:25:24;;;;;;;3.58;1.90;;;;;;;16.73;52.80;93215.97;5010794;28;20104;-59
2023/04/24 08:27:51;;;;;;;4.07;2.10;;;;;;;17.42;45.69;93219.59;5010372;28;20038;-60
2023/04/24 08:30:18;;;;;;;4.35;2.00;;;;;;;15.75;47.80;93208.00;5009492;28;20052;-59
2023/04/24 08:32:45;;;;;;;5.70;2.13;;;;;;;14.80;51.55;93233.94;4990223;28;20360;-59
2023/04/24 08:35:12;;;;;;;3.83;2.13;;;;;;;14.71;50.35;93238.22;4999501;28;20053;-59
2023/04/24 08:37:39;;;;;;;5.82;2.17;;;;;;;17.47;45.36;93230.03;5010143;28;20060;-59
2023/04/24 08:40:13;;;;;;;4.35;2.00;;;;;;;15.55;47.95;93245.25;5010254;28;20046;-59
2023/04/24 08:42:42;;;;;;;3.47;1.90;;;;;;;13.83;52.80;93257.13;5009838;28;20046;-60
2023/04/24 08:45:11;;;;;;;5.78;2.00;;;;;;;14.51;49.14;93246.16;5010387;28;20525;-59
2023/04/24 08:47:39;;;;;;;3.57;2.10;;;;;;;14.16;52.65;93251.88;5009712;28;20111;-59
2023/04/24 08:50:07;;;;;;;4.10;2.40;;;;;;;17.75;44.50;93251.97;5009035;28;20110;-60
2023/04/24 08:52:34;;;;;;;3.95;1.70;;;;;;;17.57;41.58;93239.78;5009475;28;20054;-60
2023/04/24 08:55:02;;;;;;;3.75;2.00;;;;;;;16.64;44.10;93230.66;4997152;28;20116;-60
2023/04/24 08:57:30;;;;;;;4.57;2.05;;;;;;;19.12;40.01;93237.56;5010414;28;20414;-60
2023/04/24 08:59:58;;;;;;;3.90;2.00;;;;;;;19.68;37.76;93229.06;5009158;28;20490;-60
2023/04/24 09:02:25;;;;;;;3.70;1.90;;;;;;;21.20;34.39;93228.59;5010106;28;20050;-60
2023/04/24 09:04:53;;;;;;;3.35;1.80;;;;;;;20.68;35.49;93226.81;5009458;28;20045;-60
2023/04/24 09:07:24;;;;;;;3.05;1.70;;;;;;;20.63;34.23;93230.34;5009892;28;20050;-60
2023/04/24 09:09:51;;;;;;;3.22;1.75;;;;;;;17.20;38.65;93227.50;5009098;28;20046;-60
2023/04/24 09:12:18;;;;;;;3.00;1.90;;;;;;;15.66;40.44;93228.16;5009767;28;20054;-59
2023/04/24 09:14:45;;;;;;;3.17;1.80;;;;;;;13.33;49.21;93243.97;5009312;28;20037;-60
2023/04/24 09:17:12;;;;;;;4.10;2.33;;;;;;;14.24;47.42;93246.84;4997164;28;20046;-59
2023/04/24 09:19:40;;;;;;;3.55;2.30;;;;;;;13.97;45.01;93257.31;5009475;28;20123;-59
2023/04/24 09:22:07;;;;;;;4.63;1.90;;;;;;;12.55;48.13;93263.97;5009777;28;20434;-59
2023/04/24 09:24:35;;;;;;;3.73;1.77;;;;;;;12.46;48.22;93270.16;5009572;28;20427;-59
2023/04/24 09:27:02;;;;;;;3.00;2.10;;;;;;;12.74;47.17;93275.94;5009302;28;20080;-59
2023/04/24 09:29:29;;;;;;;4.95;1.90;;;;;;;12.23;48.33;93281.53;5009703;28;20050;-59
2023/04/24 09:31:55;;;;;;;3.45;2.00;;;;;;;12.62;48.83;93274.75;4995146;28;20131;-59
2023/04/24 09:34:24;;;;;;;3.80;2.20;;;;;;;12.97;46.53;93280.25;4989952;28;20500;-59
2023/04/24 09:36:52;;;;;;;4.00;2.17;;;;;;;13.14;46.99;93286.38;5008767;28;20058;-59
2023/04/24 09:39:21;;;;;;;5.40;2.60;;;;;;;11.32;52.24;93280.66;4975842;28;20373;-59
2023/04/24 09:41:55;;;;;;;3.80;2.20;;;;;;;11.39;52.92;93313.41;5007299;28;20049;-59
2023/04/24 09:44:24;;;;;;;4.72;2.33;;;;;;;11.88;52.87;93309.66;5009628;28;20429;-58
2023/04/24 09:46:54;;;;;;;6.85;2.42;;;;;;;11.77;52.79;93325.69;5009030;28;20080;-59
2023/04/24 09:49:29;;;;;;;4.23;2.47;;;;;;;11.47;54.34;93313.22;5009412;28;20050;-59
2023/04/24 09:52:06;;;;;;;4.68;2.38;;;;;;;10.82;58.12;93331.41;5008747;28;20050;-59
2023/04/24 09:54:33;;;;;;;4.10;2.22;;;;;;;10.70;59.09;93332.88;5009262;28;20049;-59
2023/04/24 09:57:00;;;;;;;4.05;2.30;;;;;;;10.67;59.11;93324.78;5008318;28;20613;-59
2023/04/24 09:59:27;;;;;;;4.10;2.50;;;;;;;10.44;60.04;93331.19;5008999;28;20050;-59
2023/04/24 10:01:54;;;;;;;5.00;2.70;;;;;;;10.52;59.90;93327.06;5007123;28;20127;-59
2023/04/24 10:04:24;;;;;;;6.15;2.10;;;;;;;11.11;58.58;93336.19;5008849;28;20054;-59
2023/04/24 10:06:53;;;;;;;4.32;2.40;;;;;;;10.77;60.09;93340.19;5008327;28;20115;-59
2023/04/24 10:09:23;;;;;;;3.95;2.30;;;;;;;10.69;61.23;93336.84;5008945;28;20050;-59
2023/04/24 10:11:53;;;;;;;7.03;2.50;;;;;;;10.83;61.48;93346.69;5006949;28;20056;-59
2023/04/24 10:14:22;;;;;;;4.37;2.57;;;;;;;11.09;59.53;93355.84;5008626;28;20041;-59
2023/04/24 10:16:52;;;;;;;5.03;2.60;;;;;;;11.48;59.23;93339.50;5006725;28;20111;-59
2023/04/24 10:19:19;;;;;;;4.65;2.25;;;;;;;11.61;58.49;93334.81;5008850;28;20122;-59
2023/04/24 10:21:46;;;;;;;4.93;2.70;;;;;;;11.48;58.48;93331.25;5008220;28;20042;-59
2023/04/24 10:24:15;;;;;;;5.25;2.80;;;;;;;11.04;60.07;93339.88;4995656;28;20046;-59
2023/04/24 10:26:43;;;;;;;5.00;2.50;;;;;;;11.53;58.64;93336.19;5008133;28;20054;-59
2023/04/24 10:29:12;;;;;;;4.07;2.55;;;;;;;11.87;57.40;93337.59;5008357;28;20685;-59
2023/04/24 10:31:39;;;;;;;4.97;2.70;;;;;;;11.75;58.11;93339.09;5008091;28;20050;-59
2023/04/24 10:34:08;;;;;;;4.72;2.40;;;;;;;12.28;57.04;93342.25;5008548;28;20517;-59
2023/04/24 10:36:36;;;;;;;5.13;2.65;;;;;;;14.65;49.95;93336.72;5007933;28;20042;-60
2023/04/24 10:39:07;;;;;;;5.73;2.60;;;;;;;15.95;46.87;93329.25;5008195;28;20038;-60
2023/04/24 10:41:37;;;;;;;3.72;2.15;;;;;;;15.13;47.91;93339.09;5007393;28;20046;-60
2023/04/24 10:44:09;;;;;;;4.85;2.30;;;;;;;13.32;48.70;93343.59;5008388;28;20042;-59
2023/04/24 10:46:37;;;;;;;6.82;2.45;;;;;;;13.11;49.66;93343.09;4995258;28;20048;-60
2023/04/24 10:49:08;;;;;;;4.70;2.47;;;;;;;12.98;49.38;93337.66;5008151;28;20410;-60
2023/04/24 10:51:49;;;;;;;4.17;2.43;;;;;;;13.07;52.55;93336.19;5007946;28;20042;-59
2023/04/24 10:54:28;;;;;;;3.90;2.40;;;;;;;13.32;48.92;93343.59;5008138;28;20525;-59
2023/04/24 10:57:22;;;;;;;5.25;2.30;;;;;;;13.24;49.78;93345.03;5007516;28;20046;-60
2023/04/24 11:00:11;;;;;;;4.75;2.55;;;;;;;12.88;49.70;93347.03;4995021;28;20406;-59
2023/04/24 11:02:40;;;;;;;4.53;2.20;;;;;;;14.64;46.70;93351.72;5007693;28;20045;-59
2023/04/24 11:05:07;;;;;;;4.10;2.20;;;;;;;14.79;45.82;93365.75;5008281;28;20056;-60
2023/04/24 11:08:16;;;;;;;6.82;2.45;;;;;;;15.11;44.54;93353.38;4989362;28;20412;-59
2023/04/24 11:10:53;;;;;;;5.55;2.22;;;;;;;13.71;48.78;93346.97;4997074;28;20056;-60
2023/04/24 11:13:25;;;;;;;10.43;4.47;;;;;;;13.65;47.53;93346.00;5008151;28;20072;-59
2023/04/24 11:16:23;;;;;;;5.63;2.55;;;;;;;12.90;50.11;93343.84;5007494;28;20096;-60
2023/04/24 11:18:54;;;;;;;5.83;2.50;;;;;;;12.92;50.59;93355.19;4996483;28;20253;-59
2023/04/24 11:21:22;;;;;;;3.88;2.35;;;;;;;12.78;49.42;93348.94;5006763;28;20053;-59
2023/04/24 11:23:49;;;;;;;7.07;3.58;;;;;;;13.11;50.62;93356.88;5009555;28;20045;-59
2023/04/24 11:26:24;;;;;;;5.70;3.17;;;;;;;12.31;49.54;93346.88;5011802;28;20053;-59
2023/04/24 11:28:50;;;;;;;4.13;2.35;;;;;;;13.27;47.37;93353.19;5011296;28;20064;-59
2023/04/24 11:31:36;;;;;;;5.33;2.50;;;;;;;12.94;48.25;93350.00;5011639;28;20042;-60
2023/04/24 11:34:11;;;;;;;3.33;2.05;;;;;;;13.11;48.11;93351.38;5010695;28;20316;-60
2023/04/24 11:36:39;;;;;;;3.20;1.98;;;;;;;13.50;46.99;93346.53;5011128;28;20111;-60
2023/04/24 11:39:06;;;;;;;4.55;2.28;;;;;;;13.11;46.93;93345.09;5011787;28;20249;-60